sensor_id;sensor_type;location;lat;lon;timestamp;P1;durP1;ratioP1;P2;durP2;ratioP2
6292;SDS011;3179;54.350;10.102;2022-10-16T00:00:45;7.90;;;6.50;;
6292;SDS011;3179;54.350;10.102;2022-10-16T00:03:12;7.53;;;6.67;;
6292;SDS011;3179;54.350;10.102;2022-10-16T00:05:39;8.67;;;6.57;;
6292;SDS011;3179;54.350;10.102;2022-10-16T00:08:07;7.20;;;6.00;;
6292;SDS011;3179;54.350;10.102;2022-10-16T00:10:34;7.53;;;6.63;;
6292;SDS011;3179;54.350;10.102;2022-10-16T00:13:01;11.93;;;6.20;;
6292;SDS011;3179;54.350;10.102;2022-10-16T00:15:29;8.90;;;6.47;;
6292;SDS011;3179;54.350;10.102;2022-10-16T00:17:56;6.27;;;5.40;;
6292;SDS011;3179;54.350;10.102;2022-10-16T00:20:22;6.90;;;5.90;;
6292;SDS011;3179;54.350;10.102;2022-10-16T00:22:49;6.73;;;6.10;;
6292;SDS011;3179;54.350;10.102;2022-10-16T00:25:16;8.93;;;5.90;;
6292;SDS011;3179;54.350;10.102;2022-10-16T00:27:43;6.07;;;5.47;;
6292;SDS011;3179;54.350;10.102;2022-10-16T00:30:10;7.93;;;5.80;;
6292;SDS011;3179;54.350;10.102;2022-10-16T00:32:38;6.70;;;5.97;;
6292;SDS011;3179;54.350;10.102;2022-10-16T00:35:05;7.00;;;5.80;;
6292;SDS011;3179;54.350;10.102;2022-10-16T00:37:32;5.60;;;4.50;;
6292;SDS011;3179;54.350;10.102;2022-10-16T00:39:59;6.90;;;5.43;;
6292;SDS011;3179;54.350;10.102;2022-10-16T00:42:25;6.70;;;5.50;;
6292;SDS011;3179;54.350;10.102;2022-10-16T00:44:53;7.30;;;5.47;;
6292;SDS011;3179;54.350;10.102;2022-10-16T00:47:22;6.83;;;4.33;;
6292;SDS011;3179;54.350;10.102;2022-10-16T00:49:55;7.40;;;5.20;;
6292;SDS011;3179;54.350;10.102;2022-10-16T00:52:26;8.37;;;5.73;;
6292;SDS011;3179;54.350;10.102;2022-10-16T00:54:52;6.73;;;4.73;;
6292;SDS011;3179;54.350;10.102;2022-10-16T00:57:21;7.57;;;4.90;;
6292;SDS011;3179;54.350;10.102;2022-10-16T00:59:48;10.33;;;5.00;;
6292;SDS011;3179;54.350;10.102;2022-10-16T01:02:15;6.00;;;4.83;;
6292;SDS011;3179;54.350;10.102;2022-10-16T01:04:43;5.60;;;4.13;;
6292;SDS011;3179;54.350;10.102;2022-10-16T01:07:16;7.60;;;4.53;;
6292;SDS011;3179;54.350;10.102;2022-10-16T01:09:57;4.83;;;4.30;;
6292;SDS011;3179;54.350;10.102;2022-10-16T01:12:36;5.70;;;4.17;;
6292;SDS011;3179;54.350;10.102;2022-10-16T01:15:08;6.53;;;4.13;;
6292;SDS011;3179;54.350;10.102;2022-10-16T01:17:41;6.77;;;4.23;;
6292;SDS011;3179;54.350;10.102;2022-10-16T01:20:13;5.60;;;5.00;;
6292;SDS011;3179;54.350;10.102;2022-10-16T01:22:50;7.80;;;4.30;;
6292;SDS011;3179;54.350;10.102;2022-10-16T01:25:30;7.53;;;4.63;;
6292;SDS011;3179;54.350;10.102;2022-10-16T01:28:32;5.10;;;4.60;;
6292;SDS011;3179;54.350;10.102;2022-10-16T01:31:05;4.57;;;4.13;;
6292;SDS011;3179;54.350;10.102;2022-10-16T01:33:34;5.60;;;4.50;;
6292;SDS011;3179;54.350;10.102;2022-10-16T01:36:06;5.47;;;4.80;;
6292;SDS011;3179;54.350;10.102;2022-10-16T01:38:36;5.67;;;5.07;;
6292;SDS011;3179;54.350;10.102;2022-10-16T01:41:06;6.27;;;5.03;;
6292;SDS011;3179;54.350;10.102;2022-10-16T01:43:39;6.57;;;4.53;;
6292;SDS011;3179;54.350;10.102;2022-10-16T01:46:08;7.13;;;4.70;;
6292;SDS011;3179;54.350;10.102;2022-10-16T01:48:38;6.27;;;4.47;;
6292;SDS011;3179;54.350;10.102;2022-10-16T01:51:07;11.40;;;5.30;;
6292;SDS011;3179;54.350;10.102;2022-10-16T01:53:37;5.37;;;4.43;;
6292;SDS011;3179;54.350;10.102;2022-10-16T01:56:06;8.07;;;5.80;;
6292;SDS011;3179;54.350;10.102;2022-10-16T01:58:36;5.53;;;4.53;;
6292;SDS011;3179;54.350;10.102;2022-10-16T02:01:07;6.07;;;4.77;;
6292;SDS011;3179;54.350;10.102;2022-10-16T02:03:37;7.10;;;5.10;;
6292;SDS011;3179;54.350;10.102;2022-10-16T02:06:07;6.57;;;5.87;;
6292;SDS011;3179;54.350;10.102;2022-10-16T02:08:34;6.23;;;4.83;;
6292;SDS011;3179;54.350;10.102;2022-10-16T02:11:01;12.50;;;4.67;;
6292;SDS011;3179;54.350;10.102;2022-10-16T02:13:30;5.50;;;5.00;;
6292;SDS011;3179;54.350;10.102;2022-10-16T02:16:03;5.40;;;4.40;;
6292;SDS011;3179;54.350;10.102;2022-10-16T02:18:30;6.77;;;5.23;;
6292;SDS011;3179;54.350;10.102;2022-10-16T02:20:59;8.40;;;5.20;;
6292;SDS011;3179;54.350;10.102;2022-10-16T02:23:35;7.70;;;4.83;;
6292;SDS011;3179;54.350;10.102;2022-10-16T02:26:08;7.27;;;5.10;;
6292;SDS011;3179;54.350;10.102;2022-10-16T02:28:41;9.43;;;4.87;;
6292;SDS011;3179;54.350;10.102;2022-10-16T02:31:12;5.80;;;4.80;;
6292;SDS011;3179;54.350;10.102;2022-10-16T02:33:44;8.70;;;5.30;;
6292;SDS011;3179;54.350;10.102;2022-10-16T02:36:12;8.03;;;4.63;;
6292;SDS011;3179;54.350;10.102;2022-10-16T02:38:39;5.40;;;4.90;;
6292;SDS011;3179;54.350;10.102;2022-10-16T02:41:06;6.43;;;4.63;;
6292;SDS011;3179;54.350;10.102;2022-10-16T02:43:34;7.83;;;5.10;;
6292;SDS011;3179;54.350;10.102;2022-10-16T02:46:00;7.90;;;4.87;;
6292;SDS011;3179;54.350;10.102;2022-10-16T02:48:29;9.03;;;5.27;;
6292;SDS011;3179;54.350;10.102;2022-10-16T02:50:55;6.07;;;4.70;;
6292;SDS011;3179;54.350;10.102;2022-10-16T02:53:22;8.20;;;4.90;;
6292;SDS011;3179;54.350;10.102;2022-10-16T02:55:49;7.53;;;5.13;;
6292;SDS011;3179;54.350;10.102;2022-10-16T02:58:16;7.70;;;4.87;;
6292;SDS011;3179;54.350;10.102;2022-10-16T03:00:42;12.10;;;5.03;;
6292;SDS011;3179;54.350;10.102;2022-10-16T03:03:09;5.00;;;4.10;;
6292;SDS011;3179;54.350;10.102;2022-10-16T03:05:37;6.20;;;4.63;;
6292;SDS011;3179;54.350;10.102;2022-10-16T03:08:04;7.67;;;5.20;;
6292;SDS011;3179;54.350;10.102;2022-10-16T03:10:31;8.50;;;4.90;;
6292;SDS011;3179;54.350;10.102;2022-10-16T03:12:58;8.00;;;4.60;;
6292;SDS011;3179;54.350;10.102;2022-10-16T03:15:24;5.10;;;4.40;;
6292;SDS011;3179;54.350;10.102;2022-10-16T03:17:53;6.87;;;5.30;;
6292;SDS011;3179;54.350;10.102;2022-10-16T03:20:19;6.30;;;4.10;;
6292;SDS011;3179;54.350;10.102;2022-10-16T03:22:47;5.23;;;4.63;;
6292;SDS011;3179;54.350;10.102;2022-10-16T03:25:14;6.60;;;4.10;;
6292;SDS011;3179;54.350;10.102;2022-10-16T03:27:41;6.70;;;4.40;;
6292;SDS011;3179;54.350;10.102;2022-10-16T03:30:08;5.70;;;4.30;;
6292;SDS011;3179;54.350;10.102;2022-10-16T03:32:36;3.97;;;3.63;;
6292;SDS011;3179;54.350;10.102;2022-10-16T03:35:02;5.27;;;3.90;;
6292;SDS011;3179;54.350;10.102;2022-10-16T03:37:30;3.87;;;3.50;;
6292;SDS011;3179;54.350;10.102;2022-10-16T03:39:58;5.03;;;3.63;;
6292;SDS011;3179;54.350;10.102;2022-10-16T03:42:24;5.53;;;3.90;;
6292;SDS011;3179;54.350;10.102;2022-10-16T03:44:51;4.83;;;3.63;;
6292;SDS011;3179;54.350;10.102;2022-10-16T03:47:18;5.30;;;3.50;;
6292;SDS011;3179;54.350;10.102;2022-10-16T03:49:46;4.80;;;3.90;;
6292;SDS011;3179;54.350;10.102;2022-10-16T03:52:13;5.43;;;4.03;;
6292;SDS011;3179;54.350;10.102;2022-10-16T03:54:40;3.83;;;3.43;;
6292;SDS011;3179;54.350;10.102;2022-10-16T03:57:08;5.77;;;3.40;;
6292;SDS011;3179;54.350;10.102;2022-10-16T03:59:35;3.83;;;3.00;;
6292;SDS011;3179;54.350;10.102;2022-10-16T04:02:01;3.67;;;3.27;;
6292;SDS011;3179;54.350;10.102;2022-10-16T04:04:28;4.67;;;3.30;;
6292;SDS011;3179;54.350;10.102;2022-10-16T04:06:55;6.20;;;2.80;;
6292;SDS011;3179;54.350;10.102;2022-10-16T04:09:22;2.83;;;2.60;;
6292;SDS011;3179;54.350;10.102;2022-10-16T04:11:48;4.13;;;2.73;;
6292;SDS011;3179;54.350;10.102;2022-10-16T04:14:17;4.27;;;2.90;;
6292;SDS011;3179;54.350;10.102;2022-10-16T04:16:43;5.63;;;2.93;;
6292;SDS011;3179;54.350;10.102;2022-10-16T04:19:10;3.20;;;2.90;;
6292;SDS011;3179;54.350;10.102;2022-10-16T04:21:38;2.80;;;2.10;;
6292;SDS011;3179;54.350;10.102;2022-10-16T04:24:05;5.93;;;2.10;;
6292;SDS011;3179;54.350;10.102;2022-10-16T04:26:31;2.63;;;2.20;;
6292;SDS011;3179;54.350;10.102;2022-10-16T04:28:58;3.40;;;2.30;;
6292;SDS011;3179;54.350;10.102;2022-10-16T04:31:26;4.83;;;2.23;;
6292;SDS011;3179;54.350;10.102;2022-10-16T04:33:53;2.40;;;1.90;;
6292;SDS011;3179;54.350;10.102;2022-10-16T04:36:20;1.70;;;1.60;;
6292;SDS011;3179;54.350;10.102;2022-10-16T04:38:47;4.87;;;1.97;;
6292;SDS011;3179;54.350;10.102;2022-10-16T04:41:14;1.93;;;1.70;;
6292;SDS011;3179;54.350;10.102;2022-10-16T04:43:41;3.33;;;2.00;;
6292;SDS011;3179;54.350;10.102;2022-10-16T04:46:08;8.43;;;1.90;;
6292;SDS011;3179;54.350;10.102;2022-10-16T04:48:36;2.97;;;1.63;;
6292;SDS011;3179;54.350;10.102;2022-10-16T04:51:03;2.30;;;1.90;;
6292;SDS011;3179;54.350;10.102;2022-10-16T04:53:30;1.83;;;1.70;;
6292;SDS011;3179;54.350;10.102;2022-10-16T04:55:57;3.73;;;1.60;;
6292;SDS011;3179;54.350;10.102;2022-10-16T04:58:23;3.47;;;1.70;;
6292;SDS011;3179;54.350;10.102;2022-10-16T05:00:50;3.60;;;1.70;;
6292;SDS011;3179;54.350;10.102;2022-10-16T05:03:17;2.80;;;1.50;;
6292;SDS011;3179;54.350;10.102;2022-10-16T05:05:45;3.27;;;1.93;;
6292;SDS011;3179;54.350;10.102;2022-10-16T05:08:13;2.57;;;1.67;;
6292;SDS011;3179;54.350;10.102;2022-10-16T05:10:40;5.20;;;1.60;;
6292;SDS011;3179;54.350;10.102;2022-10-16T05:13:08;2.43;;;2.00;;
6292;SDS011;3179;54.350;10.102;2022-10-16T05:15:34;2.70;;;1.73;;
6292;SDS011;3179;54.350;10.102;2022-10-16T05:18:01;2.83;;;1.83;;
6292;SDS011;3179;54.350;10.102;2022-10-16T05:20:28;3.70;;;1.33;;
6292;SDS011;3179;54.350;10.102;2022-10-16T05:22:56;4.97;;;2.00;;
6292;SDS011;3179;54.350;10.102;2022-10-16T05:25:23;3.87;;;2.03;;
6292;SDS011;3179;54.350;10.102;2022-10-16T05:27:50;4.30;;;1.63;;
6292;SDS011;3179;54.350;10.102;2022-10-16T05:30:17;2.27;;;1.60;;
6292;SDS011;3179;54.350;10.102;2022-10-16T05:32:46;3.17;;;1.67;;
6292;SDS011;3179;54.350;10.102;2022-10-16T05:35:13;3.87;;;1.30;;
6292;SDS011;3179;54.350;10.102;2022-10-16T05:37:40;3.00;;;1.60;;
6292;SDS011;3179;54.350;10.102;2022-10-16T05:40:09;2.10;;;1.63;;
6292;SDS011;3179;54.350;10.102;2022-10-16T05:42:37;2.03;;;1.40;;
6292;SDS011;3179;54.350;10.102;2022-10-16T05:45:05;2.03;;;1.50;;
6292;SDS011;3179;54.350;10.102;2022-10-16T05:47:32;4.67;;;1.70;;
6292;SDS011;3179;54.350;10.102;2022-10-16T05:49:59;1.53;;;1.43;;
6292;SDS011;3179;54.350;10.102;2022-10-16T05:52:26;4.23;;;1.80;;
6292;SDS011;3179;54.350;10.102;2022-10-16T05:54:53;3.87;;;1.60;;
6292;SDS011;3179;54.350;10.102;2022-10-16T05:57:21;3.07;;;1.90;;
6292;SDS011;3179;54.350;10.102;2022-10-16T05:59:48;2.97;;;1.40;;
6292;SDS011;3179;54.350;10.102;2022-10-16T06:02:15;1.57;;;1.40;;
6292;SDS011;3179;54.350;10.102;2022-10-16T06:04:42;3.97;;;1.63;;
6292;SDS011;3179;54.350;10.102;2022-10-16T06:07:08;4.20;;;1.83;;
6292;SDS011;3179;54.350;10.102;2022-10-16T06:09:35;3.07;;;1.50;;
6292;SDS011;3179;54.350;10.102;2022-10-16T06:12:02;1.97;;;1.00;;
6292;SDS011;3179;54.350;10.102;2022-10-16T06:14:30;7.73;;;1.60;;
6292;SDS011;3179;54.350;10.102;2022-10-16T06:16:58;2.20;;;1.53;;
6292;SDS011;3179;54.350;10.102;2022-10-16T06:19:25;3.30;;;1.40;;
6292;SDS011;3179;54.350;10.102;2022-10-16T06:21:52;4.00;;;1.43;;
6292;SDS011;3179;54.350;10.102;2022-10-16T06:24:18;3.20;;;1.60;;
6292;SDS011;3179;54.350;10.102;2022-10-16T06:26:45;2.53;;;1.13;;
6292;SDS011;3179;54.350;10.102;2022-10-16T06:29:12;4.33;;;1.23;;
6292;SDS011;3179;54.350;10.102;2022-10-16T06:31:40;2.10;;;1.27;;
6292;SDS011;3179;54.350;10.102;2022-10-16T06:34:08;3.90;;;1.50;;
6292;SDS011;3179;54.350;10.102;2022-10-16T06:36:36;4.20;;;1.90;;
6292;SDS011;3179;54.350;10.102;2022-10-16T06:39:03;3.33;;;1.23;;
6292;SDS011;3179;54.350;10.102;2022-10-16T06:41:32;1.40;;;1.30;;
6292;SDS011;3179;54.350;10.102;2022-10-16T06:43:59;3.67;;;1.67;;
6292;SDS011;3179;54.350;10.102;2022-10-16T06:46:26;4.77;;;1.77;;
6292;SDS011;3179;54.350;10.102;2022-10-16T06:48:55;2.00;;;1.80;;
6292;SDS011;3179;54.350;10.102;2022-10-16T06:51:22;2.60;;;1.50;;
6292;SDS011;3179;54.350;10.102;2022-10-16T06:53:50;1.30;;;1.20;;
6292;SDS011;3179;54.350;10.102;2022-10-16T06:56:18;2.33;;;1.70;;
6292;SDS011;3179;54.350;10.102;2022-10-16T06:58:46;3.00;;;1.33;;
6292;SDS011;3179;54.350;10.102;2022-10-16T07:01:14;3.07;;;1.30;;
6292;SDS011;3179;54.350;10.102;2022-10-16T07:03:43;3.73;;;1.40;;
6292;SDS011;3179;54.350;10.102;2022-10-16T07:06:12;1.63;;;1.00;;
6292;SDS011;3179;54.350;10.102;2022-10-16T07:08:40;2.17;;;1.40;;
6292;SDS011;3179;54.350;10.102;2022-10-16T07:11:10;3.77;;;1.20;;
6292;SDS011;3179;54.350;10.102;2022-10-16T07:13:38;3.23;;;1.50;;
6292;SDS011;3179;54.350;10.102;2022-10-16T07:16:07;2.03;;;1.07;;
6292;SDS011;3179;54.350;10.102;2022-10-16T07:18:35;5.63;;;1.40;;
6292;SDS011;3179;54.350;10.102;2022-10-16T07:21:04;2.40;;;1.37;;
6292;SDS011;3179;54.350;10.102;2022-10-16T07:23:33;3.87;;;1.20;;
6292;SDS011;3179;54.350;10.102;2022-10-16T07:26:00;1.10;;;1.00;;
6292;SDS011;3179;54.350;10.102;2022-10-16T07:28:27;2.67;;;1.30;;
6292;SDS011;3179;54.350;10.102;2022-10-16T07:30:54;3.93;;;1.40;;
6292;SDS011;3179;54.350;10.102;2022-10-16T07:33:21;1.70;;;1.17;;
6292;SDS011;3179;54.350;10.102;2022-10-16T07:35:48;7.10;;;1.30;;
6292;SDS011;3179;54.350;10.102;2022-10-16T07:38:16;1.37;;;1.27;;
6292;SDS011;3179;54.350;10.102;2022-10-16T07:40:44;1.83;;;1.10;;
6292;SDS011;3179;54.350;10.102;2022-10-16T07:43:11;2.60;;;1.47;;
6292;SDS011;3179;54.350;10.102;2022-10-16T07:45:46;2.80;;;1.40;;
6292;SDS011;3179;54.350;10.102;2022-10-16T07:48:13;4.70;;;1.37;;
6292;SDS011;3179;54.350;10.102;2022-10-16T07:50:40;3.13;;;1.80;;
6292;SDS011;3179;54.350;10.102;2022-10-16T07:53:07;1.50;;;1.37;;
6292;SDS011;3179;54.350;10.102;2022-10-16T07:55:34;2.00;;;1.70;;
6292;SDS011;3179;54.350;10.102;2022-10-16T07:58:03;3.57;;;1.60;;
6292;SDS011;3179;54.350;10.102;2022-10-16T08:00:30;4.23;;;2.10;;
6292;SDS011;3179;54.350;10.102;2022-10-16T08:02:57;6.20;;;1.47;;
6292;SDS011;3179;54.350;10.102;2022-10-16T08:05:25;3.17;;;1.40;;
6292;SDS011;3179;54.350;10.102;2022-10-16T08:07:52;2.87;;;1.50;;
6292;SDS011;3179;54.350;10.102;2022-10-16T08:10:19;3.47;;;1.70;;
6292;SDS011;3179;54.350;10.102;2022-10-16T08:12:47;4.47;;;1.30;;
6292;SDS011;3179;54.350;10.102;2022-10-16T08:15:15;2.83;;;1.40;;
6292;SDS011;3179;54.350;10.102;2022-10-16T08:17:42;3.37;;;1.73;;
6292;SDS011;3179;54.350;10.102;2022-10-16T08:20:10;2.60;;;2.20;;
6292;SDS011;3179;54.350;10.102;2022-10-16T08:22:37;4.53;;;1.70;;
6292;SDS011;3179;54.350;10.102;2022-10-16T08:25:04;2.33;;;1.33;;
6292;SDS011;3179;54.350;10.102;2022-10-16T08:27:31;2.60;;;1.97;;
6292;SDS011;3179;54.350;10.102;2022-10-16T08:29:58;2.00;;;1.60;;
6292;SDS011;3179;54.350;10.102;2022-10-16T08:32:26;5.30;;;2.20;;
6292;SDS011;3179;54.350;10.102;2022-10-16T08:34:53;3.20;;;1.93;;
6292;SDS011;3179;54.350;10.102;2022-10-16T08:37:20;2.57;;;1.90;;
6292;SDS011;3179;54.350;10.102;2022-10-16T08:39:46;4.93;;;2.23;;
6292;SDS011;3179;54.350;10.102;2022-10-16T08:42:22;3.60;;;2.43;;
6292;SDS011;3179;54.350;10.102;2022-10-16T08:47:51;3.97;;;2.73;;
6292;SDS011;3179;54.350;10.102;2022-10-16T08:50:27;8.20;;;3.13;;
6292;SDS011;3179;54.350;10.102;2022-10-16T08:52:55;5.20;;;3.20;;
6292;SDS011;3179;54.350;10.102;2022-10-16T08:55:28;4.47;;;2.30;;
6292;SDS011;3179;54.350;10.102;2022-10-16T08:57:58;4.47;;;2.13;;
6292;SDS011;3179;54.350;10.102;2022-10-16T09:00:26;8.30;;;2.90;;
6292;SDS011;3179;54.350;10.102;2022-10-16T09:02:56;5.53;;;2.90;;
6292;SDS011;3179;54.350;10.102;2022-10-16T09:05:49;4.87;;;2.70;;
6292;SDS011;3179;54.350;10.102;2022-10-16T09:08:25;7.43;;;2.20;;
6292;SDS011;3179;54.350;10.102;2022-10-16T09:10:57;9.30;;;2.80;;
6292;SDS011;3179;54.350;10.102;2022-10-16T09:13:32;3.13;;;2.23;;
6292;SDS011;3179;54.350;10.102;2022-10-16T09:16:11;6.00;;;2.63;;
6292;SDS011;3179;54.350;10.102;2022-10-16T09:18:45;4.07;;;2.20;;
6292;SDS011;3179;54.350;10.102;2022-10-16T09:21:18;6.87;;;2.57;;
6292;SDS011;3179;54.350;10.102;2022-10-16T09:23:47;4.70;;;2.00;;
6292;SDS011;3179;54.350;10.102;2022-10-16T09:26:14;5.57;;;2.30;;
6292;SDS011;3179;54.350;10.102;2022-10-16T09:28:44;8.33;;;3.10;;
6292;SDS011;3179;54.350;10.102;2022-10-16T09:31:18;12.67;;;3.10;;
6292;SDS011;3179;54.350;10.102;2022-10-16T09:33:48;5.07;;;2.47;;
6292;SDS011;3179;54.350;10.102;2022-10-16T09:36:18;4.90;;;1.70;;
6292;SDS011;3179;54.350;10.102;2022-10-16T09:38:46;1.43;;;1.33;;
6292;SDS011;3179;54.350;10.102;2022-10-16T09:41:16;3.40;;;1.67;;
6292;SDS011;3179;54.350;10.102;2022-10-16T09:43:48;4.80;;;2.23;;
6292;SDS011;3179;54.350;10.102;2022-10-16T09:46:24;8.63;;;2.73;;
6292;SDS011;3179;54.350;10.102;2022-10-16T09:48:55;8.10;;;2.67;;
6292;SDS011;3179;54.350;10.102;2022-10-16T09:51:24;5.87;;;1.97;;
6292;SDS011;3179;54.350;10.102;2022-10-16T09:53:54;6.20;;;2.60;;
6292;SDS011;3179;54.350;10.102;2022-10-16T09:56:23;7.70;;;2.40;;
6292;SDS011;3179;54.350;10.102;2022-10-16T09:58:51;10.27;;;2.40;;
6292;SDS011;3179;54.350;10.102;2022-10-16T10:01:19;4.50;;;1.87;;
6292;SDS011;3179;54.350;10.102;2022-10-16T10:03:49;3.43;;;2.13;;
6292;SDS011;3179;54.350;10.102;2022-10-16T10:06:21;4.73;;;2.07;;
6292;SDS011;3179;54.350;10.102;2022-10-16T10:08:56;14.20;;;2.60;;
6292;SDS011;3179;54.350;10.102;2022-10-16T10:11:38;3.53;;;1.87;;
6292;SDS011;3179;54.350;10.102;2022-10-16T10:17:01;3.93;;;1.70;;
6292;SDS011;3179;54.350;10.102;2022-10-16T10:19:37;5.60;;;1.93;;
6292;SDS011;3179;54.350;10.102;2022-10-16T10:22:15;8.60;;;2.10;;
6292;SDS011;3179;54.350;10.102;2022-10-16T10:25:00;4.50;;;2.40;;
6292;SDS011;3179;54.350;10.102;2022-10-16T10:27:43;10.13;;;2.63;;
6292;SDS011;3179;54.350;10.102;2022-10-16T10:30:18;7.23;;;2.73;;
6292;SDS011;3179;54.350;10.102;2022-10-16T10:32:51;5.07;;;1.93;;
6292;SDS011;3179;54.350;10.102;2022-10-16T10:35:27;5.87;;;1.90;;
6292;SDS011;3179;54.350;10.102;2022-10-16T10:38:06;4.90;;;2.20;;
6292;SDS011;3179;54.350;10.102;2022-10-16T10:40:45;6.27;;;2.30;;
6292;SDS011;3179;54.350;10.102;2022-10-16T10:43:24;4.40;;;2.20;;
6292;SDS011;3179;54.350;10.102;2022-10-16T10:46:05;4.37;;;2.07;;
6292;SDS011;3179;54.350;10.102;2022-10-16T10:51:30;7.00;;;2.43;;
6292;SDS011;3179;54.350;10.102;2022-10-16T10:54:07;6.40;;;2.10;;
6292;SDS011;3179;54.350;10.102;2022-10-16T10:56:45;5.30;;;2.00;;
6292;SDS011;3179;54.350;10.102;2022-10-16T11:02:04;3.07;;;1.63;;
6292;SDS011;3179;54.350;10.102;2022-10-16T11:04:54;3.47;;;1.70;;
6292;SDS011;3179;54.350;10.102;2022-10-16T11:07:36;4.93;;;2.00;;
6292;SDS011;3179;54.350;10.102;2022-10-16T11:10:12;5.40;;;1.97;;
6292;SDS011;3179;54.350;10.102;2022-10-16T11:12:44;5.63;;;1.57;;
6292;SDS011;3179;54.350;10.102;2022-10-16T11:15:16;7.10;;;1.73;;
6292;SDS011;3179;54.350;10.102;2022-10-16T11:17:48;6.30;;;2.20;;
6292;SDS011;3179;54.350;10.102;2022-10-16T11:20:19;7.77;;;1.60;;
6292;SDS011;3179;54.350;10.102;2022-10-16T11:22:50;5.57;;;1.50;;
6292;SDS011;3179;54.350;10.102;2022-10-16T11:25:23;4.90;;;1.60;;
6292;SDS011;3179;54.350;10.102;2022-10-16T11:27:54;5.43;;;1.60;;
6292;SDS011;3179;54.350;10.102;2022-10-16T11:30:25;4.00;;;1.87;;
6292;SDS011;3179;54.350;10.102;2022-10-16T11:33:00;5.20;;;2.10;;
6292;SDS011;3179;54.350;10.102;2022-10-16T11:35:39;9.27;;;2.27;;
6292;SDS011;3179;54.350;10.102;2022-10-16T11:38:12;6.00;;;1.57;;
6292;SDS011;3179;54.350;10.102;2022-10-16T11:40:46;7.50;;;1.83;;
6292;SDS011;3179;54.350;10.102;2022-10-16T11:43:17;3.07;;;1.30;;
6292;SDS011;3179;54.350;10.102;2022-10-16T11:45:51;3.57;;;1.63;;
6292;SDS011;3179;54.350;10.102;2022-10-16T11:48:23;2.80;;;1.77;;
6292;SDS011;3179;54.350;10.102;2022-10-16T11:50:54;5.20;;;1.73;;
6292;SDS011;3179;54.350;10.102;2022-10-16T11:53:28;1.87;;;1.40;;
6292;SDS011;3179;54.350;10.102;2022-10-16T11:56:06;4.77;;;1.60;;
6292;SDS011;3179;54.350;10.102;2022-10-16T11:58:33;6.63;;;1.60;;
6292;SDS011;3179;54.350;10.102;2022-10-16T12:01:12;5.63;;;1.60;;
6292;SDS011;3179;54.350;10.102;2022-10-16T12:03:45;6.00;;;1.80;;
6292;SDS011;3179;54.350;10.102;2022-10-16T12:06:25;10.00;;;2.00;;
6292;SDS011;3179;54.350;10.102;2022-10-16T12:08:58;6.17;;;1.83;;
6292;SDS011;3179;54.350;10.102;2022-10-16T12:11:35;9.33;;;1.50;;
6292;SDS011;3179;54.350;10.102;2022-10-16T12:14:04;4.60;;;1.60;;
6292;SDS011;3179;54.350;10.102;2022-10-16T12:16:52;7.93;;;1.40;;
6292;SDS011;3179;54.350;10.102;2022-10-16T12:19:21;6.73;;;1.80;;
6292;SDS011;3179;54.350;10.102;2022-10-16T12:21:49;8.20;;;1.87;;
6292;SDS011;3179;54.350;10.102;2022-10-16T12:24:20;6.73;;;1.87;;
6292;SDS011;3179;54.350;10.102;2022-10-16T12:26:55;4.33;;;1.30;;
6292;SDS011;3179;54.350;10.102;2022-10-16T12:29:26;5.33;;;1.70;;
6292;SDS011;3179;54.350;10.102;2022-10-16T12:31:58;9.73;;;2.40;;
6292;SDS011;3179;54.350;10.102;2022-10-16T12:34:26;4.13;;;1.80;;
6292;SDS011;3179;54.350;10.102;2022-10-16T12:36:56;6.70;;;2.00;;
6292;SDS011;3179;54.350;10.102;2022-10-16T12:39:35;9.57;;;1.77;;
6292;SDS011;3179;54.350;10.102;2022-10-16T12:42:05;4.33;;;1.40;;
6292;SDS011;3179;54.350;10.102;2022-10-16T12:44:46;6.20;;;1.40;;
6292;SDS011;3179;54.350;10.102;2022-10-16T12:47:19;7.17;;;2.10;;
6292;SDS011;3179;54.350;10.102;2022-10-16T12:49:49;4.10;;;1.80;;
6292;SDS011;3179;54.350;10.102;2022-10-16T12:52:24;5.30;;;1.63;;
6292;SDS011;3179;54.350;10.102;2022-10-16T12:54:55;11.00;;;1.83;;
6292;SDS011;3179;54.350;10.102;2022-10-16T12:57:32;7.93;;;1.70;;
6292;SDS011;3179;54.350;10.102;2022-10-16T13:00:10;8.17;;;2.00;;
6292;SDS011;3179;54.350;10.102;2022-10-16T13:05:55;6.73;;;2.03;;
6292;SDS011;3179;54.350;10.102;2022-10-16T13:08:35;7.20;;;1.60;;
6292;SDS011;3179;54.350;10.102;2022-10-16T13:11:16;5.43;;;1.80;;
6292;SDS011;3179;54.350;10.102;2022-10-16T13:14:09;10.00;;;2.30;;
6292;SDS011;3179;54.350;10.102;2022-10-16T13:16:53;4.53;;;1.73;;
6292;SDS011;3179;54.350;10.102;2022-10-16T13:19:28;14.60;;;1.73;;
6292;SDS011;3179;54.350;10.102;2022-10-16T13:22:02;8.90;;;1.87;;
6292;SDS011;3179;54.350;10.102;2022-10-16T13:24:50;6.70;;;1.87;;
6292;SDS011;3179;54.350;10.102;2022-10-16T13:27:29;10.73;;;2.23;;
6292;SDS011;3179;54.350;10.102;2022-10-16T13:30:10;9.03;;;2.17;;
6292;SDS011;3179;54.350;10.102;2022-10-16T13:32:43;5.70;;;1.53;;
6292;SDS011;3179;54.350;10.102;2022-10-16T13:48:09;8.17;;;1.70;;
6292;SDS011;3179;54.350;10.102;2022-10-16T13:50:38;4.80;;;1.60;;
6292;SDS011;3179;54.350;10.102;2022-10-16T13:53:05;5.43;;;1.90;;
6292;SDS011;3179;54.350;10.102;2022-10-16T13:55:34;7.70;;;1.93;;
6292;SDS011;3179;54.350;10.102;2022-10-16T13:58:04;5.87;;;1.97;;
6292;SDS011;3179;54.350;10.102;2022-10-16T14:00:33;6.87;;;1.63;;
6292;SDS011;3179;54.350;10.102;2022-10-16T14:03:03;4.20;;;1.43;;
6292;SDS011;3179;54.350;10.102;2022-10-16T14:05:33;5.20;;;1.40;;
6292;SDS011;3179;54.350;10.102;2022-10-16T14:08:01;3.57;;;1.50;;
6292;SDS011;3179;54.350;10.102;2022-10-16T14:10:28;4.73;;;1.63;;
6292;SDS011;3179;54.350;10.102;2022-10-16T14:12:57;5.23;;;1.60;;
6292;SDS011;3179;54.350;10.102;2022-10-16T14:15:26;7.77;;;1.73;;
6292;SDS011;3179;54.350;10.102;2022-10-16T14:17:55;8.67;;;1.90;;
6292;SDS011;3179;54.350;10.102;2022-10-16T14:20:24;6.40;;;1.60;;
6292;SDS011;3179;54.350;10.102;2022-10-16T14:23:16;7.13;;;1.87;;
6292;SDS011;3179;54.350;10.102;2022-10-16T14:25:47;12.03;;;2.37;;
6292;SDS011;3179;54.350;10.102;2022-10-16T14:28:15;11.10;;;1.93;;
6292;SDS011;3179;54.350;10.102;2022-10-16T14:30:50;6.17;;;2.07;;
6292;SDS011;3179;54.350;10.102;2022-10-16T14:33:20;4.87;;;1.40;;
6292;SDS011;3179;54.350;10.102;2022-10-16T14:36:01;5.40;;;1.60;;
6292;SDS011;3179;54.350;10.102;2022-10-16T14:38:32;6.97;;;1.50;;
6292;SDS011;3179;54.350;10.102;2022-10-16T14:41:01;5.17;;;1.70;;
6292;SDS011;3179;54.350;10.102;2022-10-16T14:43:31;9.67;;;1.83;;
6292;SDS011;3179;54.350;10.102;2022-10-16T14:46:00;4.50;;;1.83;;
6292;SDS011;3179;54.350;10.102;2022-10-16T14:48:29;5.63;;;1.53;;
6292;SDS011;3179;54.350;10.102;2022-10-16T14:50:56;5.57;;;1.70;;
6292;SDS011;3179;54.350;10.102;2022-10-16T14:53:23;11.70;;;1.93;;
6292;SDS011;3179;54.350;10.102;2022-10-16T14:55:52;9.17;;;2.10;;
6292;SDS011;3179;54.350;10.102;2022-10-16T14:58:20;10.27;;;1.90;;
6292;SDS011;3179;54.350;10.102;2022-10-16T15:00:49;8.00;;;1.60;;
6292;SDS011;3179;54.350;10.102;2022-10-16T15:03:16;10.53;;;2.10;;
6292;SDS011;3179;54.350;10.102;2022-10-16T15:05:43;9.03;;;2.20;;
6292;SDS011;3179;54.350;10.102;2022-10-16T15:08:10;5.70;;;1.80;;
6292;SDS011;3179;54.350;10.102;2022-10-16T15:10:38;5.77;;;2.10;;
6292;SDS011;3179;54.350;10.102;2022-10-16T15:13:10;7.67;;;2.53;;
6292;SDS011;3179;54.350;10.102;2022-10-16T15:15:40;8.83;;;2.37;;
6292;SDS011;3179;54.350;10.102;2022-10-16T15:18:09;5.57;;;2.13;;
6292;SDS011;3179;54.350;10.102;2022-10-16T15:20:37;16.07;;;2.23;;
6292;SDS011;3179;54.350;10.102;2022-10-16T15:23:05;10.93;;;2.23;;
6292;SDS011;3179;54.350;10.102;2022-10-16T15:25:37;7.97;;;2.77;;
6292;SDS011;3179;54.350;10.102;2022-10-16T15:28:07;6.80;;;1.90;;
6292;SDS011;3179;54.350;10.102;2022-10-16T15:30:36;5.60;;;2.10;;
6292;SDS011;3179;54.350;10.102;2022-10-16T15:33:05;6.73;;;1.93;;
6292;SDS011;3179;54.350;10.102;2022-10-16T15:35:37;9.00;;;2.60;;
6292;SDS011;3179;54.350;10.102;2022-10-16T15:38:03;10.00;;;2.30;;
6292;SDS011;3179;54.350;10.102;2022-10-16T15:40:30;9.83;;;2.83;;
6292;SDS011;3179;54.350;10.102;2022-10-16T15:42:57;10.37;;;2.60;;
6292;SDS011;3179;54.350;10.102;2022-10-16T15:45:25;9.37;;;2.27;;